Terminal Aerodrome Forecast
Issued by NWS Denver/Boulder, CO

Home | Current Version | Previous Version | Text Only | Print | Product List | Glossary On
Versions: 1 2 3 4 5 6 7 8 9 10 11 12 13 14 15 16 17 18 19 20 21 22 23 24 25 26 27 28 29 30 31 32 33 34 35 36 37 38 39 40 41 42 43 44 45 46 47 48 49 50
000
FTUS45 KBOU 252035 AAC
TAFDEN
TAF AMD
KDEN 252035Z 2521/2624 07013G24KT P6SM SCT045 SCT070 BKN140
      TEMPO 2521/2522 VRB15G25KT 5SM SHRAGS BKN040 OVC060
     FM252200 34012G18KT P6SM VCSH SCT050 BKN070 BKN120
      TEMPO 2522/2601 -SHRA BKN045 OVC060
     FM260100 02020G30KT P6SM -SHRA BKN035 OVC060
      TEMPO 2602/2603 3SM -RASN BKN015 OVC030
     FM260300 03013KT P6SM SCT030 BKN150
     FM261100 VRB06KT P6SM VCFG FEW001 SCT200
     FM261600 09009KT P6SM SCT070=

USA.gov is the U.S. government's official web portal to all federal, state and local government web resources and services.